Time;durP1;ratioP1;P1;durP2;ratioP2;P2;SDS_P1;SDS_P2;PMS_P1;PMS_P2;Temp;Humidity;BMP_temperature;BMP_pressure;BME280_temperature;BME280_humidity;BME280_pressure;Samples;Min_cycle;Max_cycle;Signal;HPM_P1;HPM_P2
2022/10/19 00:01:06;;;;;;;13.22;6.75;;;;;;;11.91;62.64;99559.78;1721270;80;21435;-70
2022/10/19 00:03:34;;;;;;;9.15;6.05;;;;;;;11.90;62.55;99552.78;1718160;80;21504;-69
2022/10/19 00:06:11;;;;;;;11.70;6.85;;;;;;;11.89;62.54;99551.91;1723313;80;21018;-68
2022/10/19 00:08:38;;;;;;;9.33;5.78;;;;;;;11.88;62.38;99549.75;1706201;81;20986;-68
2022/10/19 00:11:05;;;;;;;9.93;6.00;;;;;;;11.81;64.04;99544.83;1689943;84;21811;-67
2022/10/19 00:13:32;;;;;;;;;;;;;;;11.80;63.48;99540.51;1718319;81;20979;-68
2022/10/19 00:15:59;;;;;;;13.13;5.60;;;;;;;11.73;69.21;99538.63;1719873;80;20520;-69
2022/10/19 00:18:26;;;;;;;8.85;6.00;;;;;;;11.66;65.12;99540.72;1722512;81;21608;-68
2022/10/19 00:21:05;;;;;;;8.85;5.17;;;;;;;11.65;64.92;99538.16;1724215;80;20995;-68
2022/10/19 00:23:32;;;;;;;11.10;5.97;;;;;;;11.65;64.63;99535.05;1714959;81;21574;-68
2022/10/19 00:26:00;;;;;;;10.15;5.58;;;;;;;11.64;65.93;99525.91;1731215;80;21490;-68
2022/10/19 00:28:26;;;;;;;9.03;5.67;;;;;;;11.61;65.86;99519.49;1689336;83;21592;-68
2022/10/19 00:30:53;;;;;;;10.05;6.87;;;;;;;11.57;66.58;99512.20;1678473;84;21450;-68
2022/10/19 00:33:21;;;;;;;8.45;6.00;;;;;;;11.54;67.01;99511.03;1675755;83;21569;-68
2022/10/19 00:35:50;;;;;;;12.13;6.20;;;;;;;11.56;66.50;99499.11;1725899;81;21912;-68
2022/10/19 00:38:20;;;;;;;14.30;6.97;;;;;;;11.53;67.63;99500.56;1724420;80;21563;-67
2022/10/19 00:40:48;;;;;;;7.67;5.72;;;;;;;11.49;68.07;99496.78;1679166;83;21672;-68
2022/10/19 00:43:23;;;;;;;8.18;5.92;;;;;;;11.49;68.26;99493.31;1677039;82;21612;-69
2022/10/19 00:45:50;;;;;;;10.03;6.05;;;;;;;11.48;68.27;99492.44;1686411;83;21629;-68
2022/10/19 00:48:24;;;;;;;9.48;6.37;;;;;;;11.48;68.24;99490.27;1725246;80;21831;-67
2022/10/19 00:50:51;;;;;;;9.23;6.08;;;;;;;11.47;68.65;99476.27;1701473;82;21629;-67
2022/10/19 00:53:19;;;;;;;12.35;6.47;;;;;;;11.45;69.08;99478.56;1695473;83;21758;-68
2022/10/19 00:55:46;;;;;;;10.68;6.12;;;;;;;11.42;69.52;99473.47;1689819;82;21494;-68
2022/10/19 00:58:13;;;;;;;12.73;6.80;;;;;;;11.37;70.39;99482.89;1682648;83;21546;-67
2022/10/19 01:00:40;;;;;;;10.05;6.00;;;;;;;11.38;69.68;99471.45;1724458;80;21864;-69
2022/10/19 01:03:07;;;;;;;9.75;6.08;;;;;;;11.34;70.15;99469.90;1727017;80;21575;-67
2022/10/19 01:05:34;;;;;;;10.50;5.90;;;;;;;11.33;70.78;99462.91;1726243;80;21439;-67
2022/10/19 01:08:01;;;;;;;14.15;6.60;;;;;;;11.31;71.30;99459.50;1682437;83;21064;-68
2022/10/19 01:10:36;;;;;;;9.50;6.17;;;;;;;11.29;71.46;99454.31;1688952;83;21434;-67
2022/10/19 01:13:21;;;;;;;8.20;6.55;;;;;;;11.26;72.74;99453.16;1686084;83;21483;-67
2022/10/19 01:16:03;;;;;;;9.53;6.47;;;;;;;11.21;73.58;99445.95;1692441;82;21578;-67
2022/10/19 01:18:40;;;;;;;15.78;6.10;;;;;;;11.15;74.84;99446.25;1694219;83;21462;-67
2022/10/19 01:21:18;;;;;;;7.37;5.53;;;;;;;11.15;74.43;99436.17;1698851;82;21474;-68
2022/10/19 01:24:22;;;;;;;9.93;6.37;;;;;;;11.17;73.88;99435.19;1722964;80;21010;-67
2022/10/19 01:27:09;;;;;;;8.63;6.42;;;;;;;11.20;73.79;99426.28;1687601;83;21874;-67
2022/10/19 01:30:14;;;;;;;12.05;5.78;;;;;;;11.20;73.78;99434.17;1697461;82;21423;-66
2022/10/19 01:33:05;;;;;;;14.73;6.05;;;;;;;11.17;74.34;99428.61;1724956;80;21588;-68
2022/10/19 01:35:59;;;;;;;12.73;6.72;;;;;;;11.16;75.53;99428.68;1736476;80;21482;-69
2022/10/19 01:38:59;;;;;;;12.93;6.35;;;;;;;11.20;76.18;99430.23;1725628;80;21544;-68
2022/10/19 01:41:35;;;;;;;7.97;5.70;;;;;;;11.14;77.89;99431.38;1724803;80;22109;-67
2022/10/19 01:44:33;;;;;;;;;;;;;;;11.21;76.80;99427.52;1731769;80;21502;-68
2022/10/19 01:47:06;;;;;;;10.50;5.90;;;;;;;11.24;82.67;99424.72;1736269;80;20420;-68
2022/10/19 01:49:48;;;;;;;11.65;6.25;;;;;;;11.22;78.38;99416.53;1732116;80;21433;-66
2022/10/19 01:52:16;;;;;;;11.57;6.33;;;;;;;11.32;76.35;99415.61;1722976;81;21613;-67
2022/10/19 01:54:49;;;;;;;11.60;6.22;;;;;;;11.32;77.59;99409.90;1671412;84;21891;-67
2022/10/19 01:57:21;;;;;;;8.48;6.10;;;;;;;11.36;76.98;99407.50;1715825;80;21502;-68
2022/10/19 01:59:48;;;;;;;10.82;6.28;;;;;;;11.38;76.87;99404.33;1689780;82;21554;-67
2022/10/19 02:02:14;;;;;;;10.00;6.22;;;;;;;11.42;76.69;99403.70;1709979;81;21570;-67
2022/10/19 02:04:42;;;;;;;;;;;;;;;11.43;77.61;99405.39;1717546;82;21593;-68
2022/10/19 02:07:09;;;;;;;8.65;6.08;;;;;;;11.43;81.61;99398.37;1719044;81;21293;-67
2022/10/19 02:09:37;;;;;;;8.48;5.70;;;;;;;11.40;77.89;99395.04;1687981;83;21509;-68
2022/10/19 02:12:08;;;;;;;7.10;5.70;;;;;;;11.41;78.98;99396.72;1688180;84;21467;-67
2022/10/19 02:14:41;;;;;;;10.18;6.00;;;;;;;11.34;80.93;99399.27;1676449;83;21471;-67
2022/10/19 02:17:11;;;;;;;8.30;6.22;;;;;;;11.39;79.18;99394.64;1678497;82;21490;-67
2022/10/19 02:19:37;;;;;;;13.38;6.40;;;;;;;11.41;78.86;99393.63;1711303;81;21756;-68
2022/10/19 02:22:04;;;;;;;12.00;6.62;;;;;;;11.39;79.91;99391.53;1711980;81;21298;-67
2022/10/19 02:24:32;;;;;;;11.30;7.25;;;;;;;11.40;79.54;99391.94;1717791;81;21570;-67
2022/10/19 02:27:03;;;;;;;7.33;6.53;;;;;;;11.41;80.18;99396.72;1684593;82;21585;-68
2022/10/19 02:29:32;;;;;;;13.30;6.80;;;;;;;11.37;81.65;99391.23;1723268;80;21577;-68
2022/10/19 02:31:59;;;;;;;14.05;7.03;;;;;;;11.36;80.81;99383.81;1713280;81;21939;-67
2022/10/19 02:34:27;;;;;;;13.10;7.03;;;;;;;11.34;81.52;99382.16;1731369;82;21436;-67
2022/10/19 02:36:54;;;;;;;10.78;6.83;;;;;;;11.30;83.00;99379.70;1723004;81;21530;-67
2022/10/19 02:39:20;;;;;;;8.70;6.80;;;;;;;11.29;82.91;99375.35;1677050;84;21586;-67
2022/10/19 02:42:01;;;;;;;11.57;6.35;;;;;;;11.26;83.66;99382.11;1698371;81;21534;-67
2022/10/19 02:44:39;;;;;;;11.03;6.70;;;;;;;11.22;84.56;99382.31;1674332;83;21982;-68
2022/10/19 02:47:19;;;;;;;9.85;7.05;;;;;;;11.19;84.44;99387.72;1684723;83;21455;-68
2022/10/19 02:49:46;;;;;;;11.40;6.62;;;;;;;11.16;85.28;99382.63;1685890;83;21121;-66
2022/10/19 02:52:13;;;;;;;11.48;7.00;;;;;;;11.13;86.56;99380.98;1718457;80;21542;-66
2022/10/19 02:54:42;;;;;;;8.08;6.42;;;;;;;11.16;85.56;99387.42;1697305;81;21462;-67
2022/10/19 02:57:22;;;;;;;10.03;6.80;;;;;;;11.14;87.04;99384.02;1689122;83;21878;-67
2022/10/19 02:59:50;;;;;;;11.08;7.40;;;;;;;11.15;85.94;99376.52;1718556;81;21037;-67
2022/10/19 03:02:18;;;;;;;11.48;7.70;;;;;;;11.09;88.34;99378.11;1712714;81;21524;-67
2022/10/19 03:04:45;;;;;;;7.70;6.67;;;;;;;11.12;88.58;99379.30;1725584;81;21494;-67
2022/10/19 03:07:15;;;;;;;7.83;5.93;;;;;;;11.13;86.75;99377.50;1710059;81;21455;-67
2022/10/19 03:09:44;;;;;;;9.50;6.92;;;;;;;11.07;89.85;99373.39;1718553;81;21576;-67
2022/10/19 03:12:12;;;;;;;14.20;6.87;;;;;;;11.07;89.69;99379.50;1715786;81;21546;-66
2022/10/19 03:14:40;;;;;;;13.05;7.15;;;;;;;11.02;90.87;99372.32;1718811;81;20975;-67
2022/10/19 03:17:07;;;;;;;10.53;7.05;;;;;;;11.03;90.08;99366.11;1722459;81;21598;-67
2022/10/19 03:19:34;;;;;;;13.45;7.83;;;;;;;11.04;90.80;99361.73;1722380;80;22280;-67
2022/10/19 03:22:01;;;;;;;12.70;7.47;;;;;;;11.06;90.09;99353.30;1690565;82;21569;-69
2022/10/19 03:24:29;;;;;;;10.08;7.33;;;;;;;11.08;90.45;99347.48;1708746;82;21455;-68
2022/10/19 03:26:56;;;;;;;13.10;7.08;;;;;;;11.10;92.94;99341.69;1689823;81;21433;-67
2022/10/19 03:29:23;;;;;;;15.18;7.70;;;;;;;11.15;92.39;99350.65;1682991;82;21499;-68
2022/10/19 03:31:50;;;;;;;13.62;7.90;;;;;;;11.21;91.18;99341.16;1722485;81;21517;-68
2022/10/19 03:34:16;;;;;;;11.00;7.75;;;;;;;11.25;92.24;99350.12;1724245;81;21815;-68
2022/10/19 03:36:44;;;;;;;10.40;7.67;;;;;;;11.27;95.07;99349.58;1724947;81;27133;-68
2022/10/19 03:39:12;;;;;;;13.13;7.92;;;;;;;11.33;94.55;99352.36;1696864;83;21155;-68
2022/10/19 03:41:39;;;;;;;10.03;7.28;;;;;;;11.40;95.30;99352.45;1720917;80;21565;-68
2022/10/19 03:44:06;;;;;;;13.45;7.97;;;;;;;11.48;95.51;99346.31;1726067;80;21621;-69
2022/10/19 03:46:33;;;;;;;15.70;7.63;;;;;;;11.44;95.53;99330.30;1718022;80;21878;-68
2022/10/19 03:49:00;;;;;;;10.08;7.53;;;;;;;11.63;95.92;99350.42;1679874;83;21592;-67
2022/10/19 03:51:28;;;;;;;12.03;7.70;;;;;;;11.68;97.49;99336.55;1684880;83;20982;-68
2022/10/19 03:54:06;;;;;;;10.53;7.47;;;;;;;11.74;96.69;99336.22;1735220;80;20991;-69
2022/10/19 03:56:33;;;;;;;;;;;;;;;11.79;96.95;99325.43;1702447;82;21608;-67
2022/10/19 03:59:01;;;;;;;13.47;7.53;;;;;;;11.80;100.00;99325.36;1674318;84;22044;-67
2022/10/19 04:01:34;;;;;;;12.68;8.15;;;;;;;11.84;98.07;99315.52;1675755;82;27168;-67
2022/10/19 04:04:04;;;;;;;14.60;8.48;;;;;;;11.90;98.38;99322.27;1680797;82;21578;-67
2022/10/19 04:06:34;;;;;;;15.43;8.10;;;;;;;11.93;98.83;99328.23;1694704;82;21546;-69
2022/10/19 04:09:02;;;;;;;13.93;8.45;;;;;;;11.96;99.28;99333.79;1687579;83;21571;-67
2022/10/19 04:11:29;;;;;;;10.90;7.92;;;;;;;12.03;97.98;99336.01;1684541;83;21492;-68
2022/10/19 04:13:57;;;;;;;;;;;;;;;12.02;100.00;99343.55;1682232;82;21510;-68
2022/10/19 04:16:26;;;;;;;15.10;8.43;;;;;;;12.06;100.00;99352.14;1685711;83;20408;-68
2022/10/19 04:18:53;;;;;;;12.35;8.65;;;;;;;12.05;100.00;99356.57;1675758;84;21597;-68
2022/10/19 04:21:29;;;;;;;13.28;8.93;;;;;;;12.09;100.00;99348.01;1684322;82;21507;-70
2022/10/19 04:24:01;;;;;;;14.25;9.48;;;;;;;12.16;100.00;99351.17;1686359;82;21861;-67
2022/10/19 04:26:28;;;;;;;14.43;9.30;;;;;;;12.21;100.00;99350.00;1692504;82;20951;-67
2022/10/19 04:28:59;;;;;;;14.85;8.93;;;;;;;12.24;100.00;99340.61;1686551;82;21515;-68
2022/10/19 04:31:27;;;;;;;19.32;9.68;;;;;;;12.32;100.00;99336.69;1677848;82;21538;-68
2022/10/19 04:33:54;;;;;;;17.32;9.58;;;;;;;12.38;100.00;99334.58;1685867;83;21565;-67
2022/10/19 04:36:20;;;;;;;17.82;9.95;;;;;;;12.44;100.00;99338.19;1683934;82;21796;-68
2022/10/19 04:38:47;;;;;;;15.55;10.65;;;;;;;12.53;100.00;99326.28;1679461;82;21534;-67
2022/10/19 04:41:17;;;;;;;14.87;9.58;;;;;;;12.64;100.00;99330.48;1681750;82;21784;-67
2022/10/19 04:43:46;;;;;;;15.95;9.33;;;;;;;12.74;100.00;99330.81;1688532;82;21646;-67
2022/10/19 04:46:16;;;;;;;13.85;9.73;;;;;;;12.81;100.00;99325.58;1687159;82;21494;-68
2022/10/19 04:48:45;;;;;;;11.80;9.70;;;;;;;12.88;100.00;99333.13;1685961;83;21654;-68
2022/10/19 04:51:13;;;;;;;15.98;10.65;;;;;;;12.99;100.00;99333.37;1727872;80;21460;-66
2022/10/19 04:53:41;;;;;;;16.17;11.08;;;;;;;13.03;100.00;99336.20;1726103;80;21597;-67
2022/10/19 04:56:12;;;;;;;14.50;10.38;;;;;;;13.10;100.00;99333.59;1734340;80;21550;-67
2022/10/19 04:58:39;;;;;;;13.62;10.40;;;;;;;13.16;100.00;99323.15;1724320;81;21562;-67
2022/10/19 05:01:12;;;;;;;21.30;10.63;;;;;;;13.22;100.00;99329.38;1728972;80;21878;-66
2022/10/19 05:03:38;;;;;;;16.90;10.85;;;;;;;13.28;100.00;99342.69;1719194;81;21480;-66
2022/10/19 05:06:06;;;;;;;13.53;9.35;;;;;;;13.28;100.00;99350.16;1718602;81;21423;-69
2022/10/19 05:08:32;;;;;;;14.73;10.00;;;;;;;13.33;100.00;99360.48;1719327;80;21613;-66
2022/10/19 05:11:03;;;;;;;17.70;10.05;;;;;;;13.39;100.00;99358.78;1718357;81;21577;-66
2022/10/19 05:13:31;;;;;;;12.93;9.70;;;;;;;13.40;100.00;99360.50;1719249;81;21853;-67
2022/10/19 05:16:02;;;;;;;14.00;9.85;;;;;;;13.44;100.00;99362.86;1675673;84;21545;-66
2022/10/19 05:18:30;;;;;;;13.75;9.78;;;;;;;13.42;100.00;99355.98;1691787;83;21597;-68
2022/10/19 05:21:06;;;;;;;13.50;10.25;;;;;;;13.41;100.00;99356.90;1686448;82;21471;-68
2022/10/19 05:23:33;;;;;;;13.83;9.45;;;;;;;13.41;100.00;99370.98;1728353;80;21483;-66
2022/10/19 05:26:16;;;;;;;13.38;9.48;;;;;;;13.40;100.00;99374.55;1722699;80;21921;-62
2022/10/19 05:28:48;;;;;;;12.53;9.78;;;;;;;13.40;100.00;99381.63;1724634;82;21405;-63
2022/10/19 05:31:18;;;;;;;14.95;9.95;;;;;;;13.33;100.00;99375.84;1720303;81;21586;-64
2022/10/19 05:33:46;;;;;;;14.73;10.50;;;;;;;13.31;100.00;99379.05;1685238;84;21016;-66
2022/10/19 05:36:25;;;;;;;13.45;10.03;;;;;;;13.27;100.00;99387.21;1723929;81;21022;-64
2022/10/19 05:38:56;;;;;;;15.35;11.18;;;;;;;13.24;100.00;99387.77;1723417;80;21791;-63
2022/10/19 05:41:25;;;;;;;16.12;11.40;;;;;;;13.20;100.00;99392.86;1718171;81;21417;-62
2022/10/19 05:43:56;;;;;;;16.20;11.35;;;;;;;13.19;100.00;99392.94;1729707;80;21590;-62
2022/10/19 05:46:24;;;;;;;16.70;10.98;;;;;;;13.05;100.00;99411.73;1722113;80;21728;-62
2022/10/19 05:48:51;;;;;;;12.47;9.48;;;;;;;13.04;100.00;99421.90;1729221;80;21592;-65
2022/10/19 05:51:19;;;;;;;12.88;9.85;;;;;;;13.07;100.00;99428.78;1737125;80;22932;-63
2022/10/19 05:53:48;;;;;;;15.20;10.78;;;;;;;13.12;100.00;99422.78;1729547;80;21002;-62
2022/10/19 05:56:19;;;;;;;14.50;9.95;;;;;;;13.16;100.00;99420.34;1720137;81;21046;-62
2022/10/19 05:58:46;;;;;;;17.67;10.80;;;;;;;13.15;100.00;99414.70;1681729;84;20983;-62
2022/10/19 06:01:15;;;;;;;17.82;11.08;;;;;;;13.16;100.00;99403.66;1675183;83;21408;-62
2022/10/19 06:03:42;;;;;;;13.93;10.77;;;;;;;13.15;100.00;99408.09;1716132;81;21750;-62
2022/10/19 06:06:10;;;;;;;16.10;10.48;;;;;;;13.11;100.00;99419.77;1725683;81;21736;-62
2022/10/19 06:08:37;;;;;;;14.30;10.13;;;;;;;13.13;100.00;99425.81;1720600;81;20982;-62
2022/10/19 06:11:12;;;;;;;11.03;9.07;;;;;;;13.14;100.00;99418.27;1727966;81;21444;-62
2022/10/19 06:13:40;;;;;;;13.65;10.03;;;;;;;13.19;100.00;99420.66;1717437;81;21514;-61
2022/10/19 06:16:08;;;;;;;14.38;10.15;;;;;;;13.25;100.00;99433.50;1732023;80;21791;-61
2022/10/19 06:18:36;;;;;;;14.95;9.38;;;;;;;13.27;100.00;99434.26;1718541;80;21014;-61
2022/10/19 06:21:12;;;;;;;12.93;9.33;;;;;;;13.30;100.00;99438.50;1726656;80;21506;-61
2022/10/19 06:23:38;;;;;;;13.50;9.33;;;;;;;13.36;100.00;99442.16;1725518;81;21567;-61
2022/10/19 06:26:08;;;;;;;13.60;10.05;;;;;;;13.37;100.00;99450.45;1687263;84;20994;-61
2022/10/19 06:28:37;;;;;;;11.25;9.70;;;;;;;13.42;100.00;99452.36;1723878;81;21885;-62
2022/10/19 06:31:04;;;;;;;15.55;9.33;;;;;;;13.42;100.00;99454.53;1739019;81;21458;-62
2022/10/19 06:33:30;;;;;;;12.60;9.37;;;;;;;13.44;100.00;99448.69;1694564;83;21501;-63
2022/10/19 06:36:18;;;;;;;15.23;9.20;;;;;;;13.44;100.00;99443.41;1736116;80;21003;-62
2022/10/19 06:38:48;;;;;;;12.60;9.25;;;;;;;13.47;100.00;99446.36;1724694;81;20966;-63
2022/10/19 06:41:14;;;;;;;13.10;8.45;;;;;;;13.51;100.00;99446.55;1722361;81;21784;-61
2022/10/19 06:43:42;;;;;;;11.80;8.35;;;;;;;13.53;100.00;99439.39;1730913;81;21561;-59
2022/10/19 06:46:13;;;;;;;11.73;8.75;;;;;;;13.60;100.00;99451.78;1716130;80;23429;-60
2022/10/19 06:48:40;;;;;;;10.68;8.28;;;;;;;13.60;100.00;99455.75;1689091;82;21538;-61
2022/10/19 06:51:07;;;;;;;12.25;8.00;;;;;;;13.62;100.00;99466.59;1690379;83;21692;-62
2022/10/19 06:53:34;;;;;;;11.85;8.15;;;;;;;13.68;100.00;99468.03;1685823;83;21848;-61
2022/10/19 06:56:03;;;;;;;10.03;7.83;;;;;;;13.72;100.00;99470.86;1728437;80;21621;-61
2022/10/19 06:58:35;;;;;;;7.78;7.00;;;;;;;13.75;100.00;99477.75;1722240;80;21516;-61
2022/10/19 07:01:03;;;;;;;9.03;7.62;;;;;;;13.77;100.00;99481.18;1669739;83;21493;-61
2022/10/19 07:03:30;;;;;;;12.25;8.00;;;;;;;13.76;100.00;99488.23;1676942;83;21517;-61
2022/10/19 07:06:00;;;;;;;8.80;7.37;;;;;;;13.78;100.00;99497.40;1722244;80;21873;-62
2022/10/19 07:08:29;;;;;;;8.23;7.45;;;;;;;13.80;100.00;99495.03;1717010;80;21594;-62
2022/10/19 07:11:00;;;;;;;9.90;7.53;;;;;;;13.80;100.00;99490.23;1681121;84;21673;-63
2022/10/19 07:13:28;;;;;;;9.80;6.80;;;;;;;13.85;100.00;99482.05;1717052;80;21541;-63
2022/10/19 07:15:57;;;;;;;7.05;6.35;;;;;;;13.92;100.00;99492.17;1724626;81;21656;-65
2022/10/19 07:18:25;;;;;;;6.05;5.40;;;;;;;13.96;100.00;99484.91;1721324;80;21799;-65
2022/10/19 07:20:56;;;;;;;7.17;5.33;;;;;;;14.01;100.00;99481.05;1726187;80;21050;-64
2022/10/19 07:23:24;;;;;;;7.92;5.58;;;;;;;14.13;100.00;99469.36;1725357;80;21527;-65
2022/10/19 07:25:53;;;;;;;5.47;4.35;;;;;;;14.18;100.00;99462.86;1717395;80;21511;-62
2022/10/19 07:28:20;;;;;;;6.65;4.47;;;;;;;14.18;100.00;99469.47;1727509;80;21605;-63
2022/10/19 07:30:48;;;;;;;5.15;4.05;;;;;;;14.23;100.00;99470.97;1731277;80;21462;-62
2022/10/19 07:33:14;;;;;;;4.87;4.15;;;;;;;14.25;100.00;99468.60;1683680;84;22207;-64
2022/10/19 07:35:41;;;;;;;7.55;3.60;;;;;;;14.31;100.00;99469.55;1725779;80;21045;-63
2022/10/19 07:38:08;;;;;;;4.22;3.77;;;;;;;14.34;100.00;99465.88;1727794;80;21456;-64
2022/10/19 07:40:35;;;;;;;5.57;3.40;;;;;;;14.35;100.00;99470.21;1684800;83;21438;-63
2022/10/19 07:43:01;;;;;;;2.75;2.50;;;;;;;14.40;100.00;99468.14;1731354;80;21669;-65
2022/10/19 07:45:28;;;;;;;2.60;2.22;;;;;;;14.40;100.00;99470.30;1725391;80;21554;-63
2022/10/19 07:47:55;;;;;;;2.70;2.50;;;;;;;14.41;100.00;99470.70;1723409;80;20958;-64
2022/10/19 07:50:26;;;;;;;2.72;2.52;;;;;;;14.47;100.00;99460.69;1718454;80;22176;-68
2022/10/19 07:52:52;;;;;;;3.58;2.75;;;;;;;14.50;100.00;99463.12;1743064;80;21581;-65
2022/10/19 07:55:19;;;;;;;4.62;1.85;;;;;;;14.55;100.00;99455.77;1736869;80;21994;-65
2022/10/19 07:57:47;;;;;;;4.85;2.02;;;;;;;14.55;100.00;99446.51;1736100;80;21387;-65
2022/10/19 08:00:16;;;;;;;1.75;1.65;;;;;;;14.56;100.00;99436.28;1735924;80;21526;-64
2022/10/19 08:02:43;;;;;;;1.80;1.70;;;;;;;14.59;100.00;99444.08;1742006;80;21518;-64
2022/10/19 08:05:10;;;;;;;2.27;2.15;;;;;;;14.61;100.00;99442.18;1728220;80;21404;-65
2022/10/19 08:07:38;;;;;;;2.00;1.80;;;;;;;14.59;100.00;99441.43;1727803;80;21443;-64
2022/10/19 08:10:06;;;;;;;1.90;1.80;;;;;;;14.60;100.00;99447.11;1748367;80;21546;-64
2022/10/19 08:12:36;;;;;;;2.95;1.90;;;;;;;14.62;100.00;99443.89;1696783;82;21620;-64
2022/10/19 08:15:05;;;;;;;2.42;2.22;;;;;;;14.61;100.00;99439.53;1699557;82;21454;-64
2022/10/19 08:17:39;;;;;;;3.83;2.35;;;;;;;14.60;100.00;99448.44;1704114;82;21663;-65
2022/10/19 08:20:06;;;;;;;3.83;2.40;;;;;;;14.66;100.00;99443.23;1694921;83;21807;-65
2022/10/19 08:22:33;;;;;;;2.62;2.30;;;;;;;14.66;100.00;99436.62;1696196;81;21096;-65
2022/10/19 08:25:01;;;;;;;2.10;1.87;;;;;;;14.69;100.00;99440.38;1692988;83;21596;-64
2022/10/19 08:27:28;;;;;;;2.52;2.33;;;;;;;14.67;100.00;99421.94;1691575;83;21542;-64
2022/10/19 08:29:54;;;;;;;2.55;1.95;;;;;;;14.69;100.00;99441.25;1681614;82;21591;-64
2022/10/19 08:32:21;;;;;;;1.50;1.40;;;;;;;14.63;100.00;99434.99;1667474;84;22250;-65
2022/10/19 08:34:49;;;;;;;;;;;;;;;14.70;100.00;99441.61;1675092;84;21448;-65
2022/10/19 08:37:15;;;;;;;2.87;1.50;;;;;;;14.72;100.00;99445.00;1678761;84;20156;-64
2022/10/19 08:39:43;;;;;;;3.65;1.85;;;;;;;14.76;100.00;99452.27;1690885;83;21469;-65
2022/10/19 08:42:19;;;;;;;1.72;1.42;;;;;;;14.81;100.00;99460.78;1678564;83;21501;-65
2022/10/19 08:45:20;;;;;;;1.77;1.27;;;;;;;14.84;100.00;99456.59;1689701;83;21746;-65
2022/10/19 08:48:05;;;;;;;1.67;1.57;;;;;;;14.89;100.00;99458.48;1671365;83;20945;-65
2022/10/19 08:50:41;;;;;;;2.22;2.00;;;;;;;14.97;100.00;99448.73;1696466;82;21761;-65
2022/10/19 08:53:35;;;;;;;1.57;1.25;;;;;;;15.02;100.00;99450.62;1669083;83;21447;-65
2022/10/19 08:56:32;;;;;;;2.05;1.85;;;;;;;15.05;100.00;99457.05;1642546;84;21636;-65
2022/10/19 08:59:06;;;;;;;2.25;2.00;;;;;;;15.07;100.00;99445.89;1664036;84;21581;-65
2022/10/19 09:01:50;;;;;;;2.67;2.10;;;;;;;15.12;100.00;99457.01;1684857;82;21676;-65
2022/10/19 09:04:24;;;;;;;3.15;1.80;;;;;;;15.19;100.00;99449.53;1693032;82;21569;-65
2022/10/19 09:07:21;;;;;;;2.83;2.00;;;;;;;15.12;100.00;99458.81;1698890;82;21641;-64
2022/10/19 09:09:57;;;;;;;1.37;1.27;;;;;;;15.04;100.00;99457.98;1702959;81;21419;-64
2022/10/19 09:12:36;;;;;;;2.08;1.55;;;;;;;15.00;100.00;99467.08;1706860;82;21768;-65
2022/10/19 09:15:06;;;;;;;3.25;1.30;;;;;;;14.97;100.00;99451.38;1697405;82;21614;-63
2022/10/19 09:17:37;;;;;;;2.67;1.30;;;;;;;14.94;100.00;99466.16;1702749;82;21044;-64
2022/10/19 09:20:21;;;;;;;2.55;1.32;;;;;;;14.93;100.00;99455.17;1705626;82;21645;-64
2022/10/19 09:23:00;;;;;;;2.30;1.47;;;;;;;14.96;100.00;99450.54;1715781;82;21448;-65
2022/10/19 09:25:28;;;;;;;3.05;1.65;;;;;;;15.01;100.00;99446.26;1699978;82;21759;-64
2022/10/19 09:28:12;;;;;;;1.90;1.22;;;;;;;15.13;100.00;99445.48;1703749;82;21522;-64
2022/10/19 09:30:39;;;;;;;1.95;1.30;;;;;;;15.23;100.00;99434.30;1703322;82;22479;-63
2022/10/19 09:33:07;;;;;;;1.60;1.22;;;;;;;15.27;100.00;99438.44;1698172;82;21613;-63
2022/10/19 09:35:40;;;;;;;3.35;1.52;;;;;;;15.38;100.00;99433.28;1704251;82;22360;-65
2022/10/19 09:38:07;;;;;;;1.40;1.22;;;;;;;15.43;100.00;99427.21;1707070;82;21948;-64
2022/10/19 09:40:34;;;;;;;1.32;1.22;;;;;;;15.48;100.00;99428.22;1700668;81;21539;-64
2022/10/19 09:43:17;;;;;;;1.60;1.30;;;;;;;15.54;100.00;99427.83;1693861;82;21533;-63
2022/10/19 09:45:53;;;;;;;1.77;1.35;;;;;;;15.56;100.00;99425.44;1680752;82;21625;-64
2022/10/19 09:48:52;;;;;;;2.67;1.27;;;;;;;15.62;100.00;99429.97;1709587;82;21530;-63
2022/10/19 09:51:19;;;;;;;1.37;1.27;;;;;;;15.58;100.00;99432.81;1704314;82;21879;-64
2022/10/19 09:53:54;;;;;;;1.80;1.60;;;;;;;15.65;100.00;99426.63;1722995;81;21518;-64
2022/10/19 09:56:23;;;;;;;1.95;1.52;;;;;;;15.71;100.00;99428.86;1726964;81;21518;-64
2022/10/19 09:59:00;;;;;;;2.62;1.60;;;;;;;15.66;100.00;99431.45;1722162;81;21498;-65
2022/10/19 10:01:39;;;;;;;2.17;1.32;;;;;;;15.61;100.00;99429.58;1735616;81;21515;-64
2022/10/19 10:06:17;;;;;;;3.80;1.42;;;;;;;15.24;100.00;99424.93;1776675;78;22661;-65
2022/10/19 10:08:51;;;;;;;1.87;1.67;;;;;;;15.43;100.00;99421.91;1718858;81;21455;-64
2022/10/19 10:11:32;;;;;;;2.98;1.60;;;;;;;15.34;100.00;99421.20;1713703;81;21809;-64
2022/10/19 10:14:05;;;;;;;2.40;1.47;;;;;;;15.31;100.00;99422.70;1733446;80;21612;-66
2022/10/19 10:16:34;;;;;;;1.82;1.07;;;;;;;15.28;100.00;99419.80;1716675;82;21053;-66
2022/10/19 10:19:12;;;;;;;1.32;1.00;;;;;;;15.22;100.00;99414.04;1737876;80;21463;-66
2022/10/19 10:21:51;;;;;;;2.55;1.32;;;;;;;15.22;100.00;99415.37;1726679;81;21755;-65
2022/10/19 10:24:21;;;;;;;2.62;1.20;;;;;;;15.26;100.00;99412.43;1733922;81;21802;-65
2022/10/19 10:26:51;;;;;;;3.35;1.35;;;;;;;15.27;100.00;99418.57;1738583;80;21511;-65
2022/10/19 10:29:33;;;;;;;2.12;1.35;;;;;;;15.29;100.00;99412.69;1735762;80;21584;-64
2022/10/19 10:32:19;;;;;;;1.30;1.10;;;;;;;15.28;100.00;99411.02;1721983;80;21471;-65
2022/10/19 10:35:00;;;;;;;1.50;1.40;;;;;;;15.33;100.00;99399.61;1734823;80;20982;-64
2022/10/19 10:37:39;;;;;;;1.82;1.35;;;;;;;15.42;100.00;99396.84;1743213;80;21815;-63
2022/10/19 10:40:29;;;;;;;1.60;1.50;;;;;;;15.48;100.00;99397.30;1740717;80;21715;-64
2022/10/19 10:43:03;;;;;;;1.50;1.40;;;;;;;15.58;100.00;99402.82;1735100;80;21569;-65
2022/10/19 10:45:41;;;;;;;4.03;1.40;;;;;;;15.56;100.00;99400.27;1733240;80;21434;-63
2022/10/19 10:48:24;;;;;;;;;;;;;;;15.44;100.00;99397.58;1739227;80;21549;-63
2022/10/19 10:50:51;;;;;;;1.32;1.22;;;;;;;15.36;100.00;99398.09;1728086;80;21809;-63
2022/10/19 10:53:37;;;;;;;1.60;1.50;;;;;;;15.35;100.00;99391.09;1736181;80;21636;-63
2022/10/19 10:56:07;;;;;;;4.60;1.32;;;;;;;15.43;100.00;99383.98;1726934;81;21494;-66
2022/10/19 10:58:47;;;;;;;1.72;1.60;;;;;;;15.47;100.00;99383.66;1740858;80;21565;-64
2022/10/19 11:01:18;;;;;;;2.17;1.60;;;;;;;15.49;99.03;99387.05;1733263;81;21655;-63
2022/10/19 11:03:56;;;;;;;1.27;1.17;;;;;;;15.46;97.48;99385.08;1730156;81;21593;-63
2022/10/19 11:06:23;;;;;;;1.82;1.40;;;;;;;15.41;94.91;99387.18;1715508;81;28822;-66
2022/10/19 11:09:10;;;;;;;4.83;1.30;;;;;;;15.32;92.85;99380.72;1704701;81;21507;-63
2022/10/19 11:11:46;;;;;;;1.72;1.05;;;;;;;15.30;92.57;99377.33;1705122;82;21837;-66
2022/10/19 11:14:31;;;;;;;1.20;1.10;;;;;;;15.29;90.08;99373.80;1716436;82;21034;-66
2022/10/19 11:17:06;;;;;;;1.27;1.10;;;;;;;15.24;88.92;99373.28;1725892;80;21779;-64
2022/10/19 11:19:37;;;;;;;1.40;1.30;;;;;;;15.27;88.10;99361.63;1715674;81;21614;-66
2022/10/19 11:22:34;;;;;;;1.67;1.32;;;;;;;15.33;86.72;99359.88;1709604;82;21507;-64
2022/10/19 11:25:51;;;;;;;2.70;1.32;;;;;;;15.35;86.46;99357.52;1717328;81;21514;-64
2022/10/19 11:28:32;;;;;;;1.98;1.37;;;;;;;15.47;84.97;99353.67;1723834;80;21120;-65
2022/10/19 11:31:17;;;;;;;2.95;1.07;;;;;;;15.64;83.53;99353.86;1690205;82;21836;-63
2022/10/19 11:33:54;;;;;;;1.32;1.00;;;;;;;15.79;79.83;99339.58;1714987;81;21525;-65
2022/10/19 11:36:36;;;;;;;1.10;1.00;;;;;;;16.14;79.60;99334.92;1715264;81;21116;-65
2022/10/19 11:39:59;;;;;;;1.90;0.80;;;;;;;16.51;77.99;99329.16;1702129;81;21816;-63
2022/10/19 11:43:01;;;;;;;1.20;1.00;;;;;;;16.76;76.12;99322.55;1721220;80;21529;-64
2022/10/19 11:46:10;;;;;;;1.20;1.10;;;;;;;16.81;75.38;99323.06;1723541;80;21982;-64
2022/10/19 11:49:13;;;;;;;2.40;0.80;;;;;;;16.60;74.84;99325.00;1720820;81;21620;-64
2022/10/19 11:51:56;;;;;;;1.62;1.17;;;;;;;16.42;74.80;99323.19;1714754;82;21424;-66
2022/10/19 11:54:59;;;;;;;3.58;1.35;;;;;;;16.20;75.10;99310.63;1717255;82;21559;-66